aviador You're here:

OIZH Decoded Metar

ZAHEDAN in IRAN
Report Time2017-08-22 08:30:00
UTC Time2017-08-22 09:05:06
Flight Rules vfr VFR
Wind350° at 08 kt
W.Decomp.*RWY 35: 8.0 kt HW 0.1 kt LCW
W.Rank350° ranks 4
Current wind is above 350° avg. (6.7)
Visibility9999 m
Phenomena:N/A
Clouds:N/A
Expected CloudBase > 14,400 ft AGL from Temp-Dew spread
CeilingNone
Temp34°C (ISA +28)
Dew Point-2°C (10% RH)
Heat Index31.5°C
AAT28.9°C
QNH1011 hPa
Density Alt7,766 ft
Elevation4,495 ft
Report Wrong Elevation
Raw Report
METAR OIZH 220830Z 35008KT CAVOK 34/M02 Q1011 A2987=

Extra information for OIZH:More info

Metar Taf Metar & Taf Last 4 Metars F.Rules Stats Wind Profile Meteogram Temp Stats Airport Information Weather charts Add Link Nearby VenuesMetar ALERT Operation Metar Decoded Social comments